createdAt,value
2022-10-19T00:01:15.769Z,39.40
2022-10-19T00:03:45.090Z,37.15
2022-10-19T00:06:27.027Z,39.70
2022-10-19T00:09:02.881Z,37.88
2022-10-19T00:11:33.337Z,37.78
2022-10-19T00:14:01.320Z,37.72
2022-10-19T00:16:32.253Z,40.67
2022-10-19T00:19:02.948Z,40.38
2022-10-19T00:21:30.647Z,40.67
2022-10-19T00:23:57.968Z,40.53
2022-10-19T00:26:27.930Z,41.10
2022-10-19T00:28:56.882Z,37.88
2022-10-19T00:31:24.822Z,40.45
2022-10-19T00:33:53.013Z,40.38
2022-10-19T00:36:24.489Z,40.70
2022-10-19T00:38:52.725Z,40.20
2022-10-19T00:41:22.354Z,39.63
2022-10-19T00:44:30.233Z,38.05
2022-10-19T00:47:02.967Z,40.17
2022-10-19T00:49:36.195Z,38.05
2022-10-19T00:52:12.275Z,37.67
2022-10-19T00:54:42.449Z,41.13
2022-10-19T00:57:11.107Z,41.97
2022-10-19T00:59:40.297Z,41.35
2022-10-19T01:02:07.627Z,39.70
2022-10-19T01:04:38.748Z,39.60
2022-10-19T01:07:08.170Z,39.60
2022-10-19T01:09:35.287Z,41.90
2022-10-19T01:12:20.288Z,40.78
2022-10-19T01:14:59.157Z,40.08
2022-10-19T01:18:10.253Z,40.97
2022-10-19T01:21:17.439Z,40.33
2022-10-19T01:24:08.624Z,40.58
2022-10-19T01:27:06.696Z,41.10
2022-10-19T01:30:08.264Z,42.65
2022-10-19T01:33:13.261Z,40.80
2022-10-19T01:35:58.321Z,40.90
2022-10-19T01:38:51.458Z,44.40
2022-10-19T01:41:28.842Z,44.38
2022-10-19T01:44:15.445Z,46.92
2022-10-19T01:46:49.923Z,46.97
2022-10-19T01:49:39.061Z,50.63
2022-10-19T01:52:09.590Z,49.50
2022-10-19T01:54:43.483Z,45.92
2022-10-19T01:57:14.810Z,45.53
2022-10-19T01:59:42.862Z,48.08
2022-10-19T02:02:13.451Z,48.55
2022-10-19T02:04:41.409Z,45.13
2022-10-19T02:07:09.028Z,46.83
2022-10-19T02:09:36.302Z,45.15
2022-10-19T02:12:09.071Z,45.75
2022-10-19T02:14:44.887Z,44.17
2022-10-19T02:17:17.850Z,46.10
2022-10-19T02:19:45.274Z,44.67
2022-10-19T02:22:13.948Z,47.60
2022-10-19T02:24:40.948Z,47.03
2022-10-19T02:27:08.800Z,46.85
2022-10-19T02:29:37.696Z,46.80
2022-10-19T02:32:06.156Z,46.90
2022-10-19T02:34:34.009Z,46.78
2022-10-19T02:37:01.032Z,47.97
2022-10-19T02:39:28.179Z,45.30
2022-10-19T02:42:07.613Z,45.40
2022-10-19T02:44:48.150Z,46.03
2022-10-19T02:47:43.765Z,45.13
2022-10-19T02:50:11.942Z,47.20
2022-10-19T02:52:40.788Z,44.88
2022-10-19T02:55:09.205Z,45.92
2022-10-19T02:57:37.034Z,44.25
2022-10-19T03:00:09.069Z,44.22
2022-10-19T03:02:36.106Z,43.10
2022-10-19T03:05:04.306Z,44.03
2022-10-19T03:07:31.364Z,42.00
2022-10-19T03:09:58.537Z,41.28
2022-10-19T03:12:25.639Z,41.75
2022-10-19T03:14:52.533Z,40.75
2022-10-19T03:17:19.885Z,39.95
2022-10-19T03:19:46.817Z,38.97
2022-10-19T03:22:15.105Z,37.75
2022-10-19T03:24:42.147Z,36.00
2022-10-19T03:27:09.141Z,36.47
2022-10-19T03:29:36.044Z,37.20
2022-10-19T03:32:03.132Z,38.78
2022-10-19T03:34:30.014Z,38.65
2022-10-19T03:36:59.172Z,39.03
2022-10-19T03:39:26.334Z,38.97
2022-10-19T03:41:53.320Z,39.85
2022-10-19T03:44:20.322Z,39.25
2022-10-19T03:46:47.349Z,39.17
2022-10-19T03:49:14.362Z,39.63
2022-10-19T03:51:41.612Z,41.10
2022-10-19T03:54:14.752Z,39.25
2022-10-19T03:56:42.900Z,40.33
2022-10-19T03:59:14.681Z,40.13
2022-10-19T04:01:45.536Z,42.30
2022-10-19T04:04:16.574Z,41.17
2022-10-19T04:06:46.867Z,40.30
2022-10-19T04:09:17.973Z,44.42
2022-10-19T04:11:45.032Z,43.85
2022-10-19T04:14:19.326Z,41.47
2022-10-19T04:16:54.136Z,39.13
2022-10-19T04:19:20.975Z,39.97
2022-10-19T04:21:49.625Z,42.40
2022-10-19T04:24:18.974Z,43.10
2022-10-19T04:26:52.324Z,43.88
2022-10-19T04:29:24.963Z,42.60
2022-10-19T04:31:55.018Z,41.53
2022-10-19T04:34:22.127Z,43.30
2022-10-19T04:36:49.003Z,40.00
2022-10-19T04:39:16.019Z,39.72
2022-10-19T04:41:42.925Z,42.88
2022-10-19T04:44:10.164Z,39.88
2022-10-19T04:46:38.357Z,37.58
2022-10-19T04:49:06.824Z,41.22
2022-10-19T04:51:34.258Z,43.75
2022-10-19T04:54:03.976Z,40.03
2022-10-19T04:56:32.447Z,41.97
2022-10-19T04:59:01.136Z,41.22
2022-10-19T05:01:30.880Z,40.97
2022-10-19T05:04:01.016Z,40.45
2022-10-19T05:06:29.616Z,42.35
2022-10-19T05:08:57.430Z,42.17
2022-10-19T05:11:24.997Z,38.67
2022-10-19T05:13:52.478Z,39.00
2022-10-19T05:16:22.998Z,39.72
2022-10-19T05:18:56.781Z,39.03
2022-10-19T05:23:53.649Z,38.67
2022-10-19T05:26:23.785Z,40.53
2022-10-19T05:28:56.604Z,42.38
2022-10-19T05:31:28.073Z,42.60
2022-10-19T05:33:58.436Z,42.90
2022-10-19T05:36:28.870Z,41.60
2022-10-19T05:38:58.082Z,43.90
2022-10-19T05:41:26.590Z,42.70
2022-10-19T05:43:59.145Z,44.67
2022-10-19T05:46:29.402Z,41.22
2022-10-19T05:48:58.350Z,44.85
2022-10-19T05:51:27.519Z,43.90
2022-10-19T05:53:55.835Z,44.95
2022-10-19T05:56:26.785Z,44.67
2022-10-19T05:58:56.900Z,43.50
2022-10-19T06:01:24.349Z,43.97
2022-10-19T06:03:55.053Z,43.67
2022-10-19T06:06:23.246Z,44.17
2022-10-19T06:08:52.426Z,44.92
2022-10-19T06:11:27.445Z,44.15
2022-10-19T06:13:57.423Z,46.50
2022-10-19T06:16:27.107Z,40.60
2022-10-19T06:18:55.062Z,38.63
2022-10-19T06:21:27.636Z,38.78
2022-10-19T06:23:58.618Z,38.70
2022-10-19T06:26:27.968Z,37.63
2022-10-19T06:29:00.610Z,32.22
2022-10-19T06:31:33.924Z,35.67
2022-10-19T06:34:01.789Z,33.37
2022-10-19T06:36:31.470Z,31.05
2022-10-19T06:39:02.309Z,32.63
2022-10-19T06:41:31.416Z,32.70
2022-10-19T06:44:12.450Z,35.30
2022-10-19T06:46:39.785Z,35.72
2022-10-19T06:49:07.170Z,35.70
2022-10-19T06:51:34.533Z,34.35
2022-10-19T06:54:01.885Z,35.15
2022-10-19T06:56:29.069Z,38.08
2022-10-19T06:58:56.537Z,38.40
2022-10-19T07:01:24.433Z,35.38
2022-10-19T07:03:53.043Z,37.60
2022-10-19T07:06:20.603Z,34.35
2022-10-19T07:08:47.916Z,33.67
2022-10-19T07:11:19.100Z,31.73
2022-10-19T07:13:46.230Z,32.10
2022-10-19T07:16:19.781Z,27.52
2022-10-19T07:18:51.496Z,26.45
2022-10-19T07:21:21.175Z,28.17
2022-10-19T07:23:49.006Z,25.73
2022-10-19T07:26:28.325Z,24.35
2022-10-19T07:28:57.591Z,26.65
2022-10-19T07:31:27.358Z,25.13
2022-10-19T07:34:01.001Z,26.10
2022-10-19T07:36:30.723Z,23.80
2022-10-19T07:38:58.323Z,23.75
2022-10-19T07:41:26.847Z,22.75
2022-10-19T07:43:54.916Z,23.13
2022-10-19T07:46:25.513Z,22.70
2022-10-19T07:48:53.696Z,22.02
2022-10-19T07:51:22.106Z,21.00
2022-10-19T07:53:49.485Z,21.80
2022-10-19T07:56:22.893Z,22.98
2022-10-19T07:58:51.986Z,19.25
2022-10-19T08:01:22.654Z,19.40
2022-10-19T08:06:39.417Z,19.95
2022-10-19T08:09:06.720Z,19.23
2022-10-19T08:11:36.214Z,17.50
2022-10-19T08:14:03.726Z,17.80
2022-10-19T08:16:40.418Z,19.10
2022-10-19T08:19:11.654Z,15.80
2022-10-19T08:21:41.342Z,17.55
2022-10-19T08:24:09.298Z,15.60
2022-10-19T08:26:40.157Z,16.73
2022-10-19T08:29:17.314Z,15.45
2022-10-19T08:31:46.987Z,15.48
2022-10-19T08:34:15.845Z,15.70
2022-10-19T08:36:43.416Z,15.35
2022-10-19T08:39:12.762Z,15.05
2022-10-19T08:41:58.575Z,14.90
2022-10-19T08:45:06.242Z,16.55
2022-10-19T08:48:00.886Z,16.73
2022-10-19T08:50:38.085Z,18.95
2022-10-19T08:53:14.555Z,18.58
2022-10-19T08:56:04.532Z,19.10
2022-10-19T08:59:02.600Z,19.17
2022-10-19T09:01:44.021Z,19.15
2022-10-19T09:04:38.028Z,18.67
2022-10-19T09:07:27.257Z,19.20
2022-10-19T09:10:26.450Z,18.23
2022-10-19T09:12:59.870Z,18.70
2022-10-19T09:15:40.980Z,19.20
2022-10-19T09:18:14.834Z,18.83
2022-10-19T09:20:49.329Z,19.98
2022-10-19T09:23:59.435Z,18.90
2022-10-19T09:26:31.015Z,18.88
2022-10-19T09:29:04.806Z,19.92
2022-10-19T09:31:40.691Z,19.13
2022-10-19T09:34:23.763Z,17.98
2022-10-19T09:36:57.537Z,18.75
2022-10-19T09:39:29.558Z,19.15
2022-10-19T09:42:22.928Z,20.17
2022-10-19T09:44:52.305Z,18.67
2022-10-19T09:47:35.039Z,19.25
2022-10-19T09:50:17.604Z,18.75
2022-10-19T09:52:47.988Z,19.13
2022-10-19T09:55:15.020Z,19.58
2022-10-19T09:58:18.695Z,18.83
2022-10-19T10:00:54.970Z,17.45
2022-10-19T10:03:43.361Z,18.25
2022-10-19T10:06:17.850Z,18.52
2022-10-19T10:08:58.784Z,18.85
2022-10-19T10:11:31.195Z,18.80
2022-10-19T10:14:09.872Z,17.80
2022-10-19T10:16:37.308Z,16.30
2022-10-19T10:19:08.388Z,16.42
2022-10-19T10:21:50.308Z,15.75
2022-10-19T10:24:23.693Z,17.58
2022-10-19T10:27:00.678Z,19.15
2022-10-19T10:29:30.148Z,19.48
2022-10-19T10:32:04.294Z,19.75
2022-10-19T10:34:52.824Z,20.92
2022-10-19T10:37:29.049Z,19.13
2022-10-19T10:40:01.901Z,20.02
2022-10-19T10:42:42.035Z,20.23
2022-10-19T10:45:26.783Z,18.98
2022-10-19T10:47:54.338Z,20.30
2022-10-19T10:50:32.685Z,20.10
2022-10-19T10:53:07.099Z,20.02
2022-10-19T10:55:34.889Z,20.70
2022-10-19T10:58:15.730Z,21.00
2022-10-19T11:00:43.484Z,21.02
2022-10-19T11:03:25.905Z,21.40
2022-10-19T11:06:02.826Z,21.05
2022-10-19T11:08:51.629Z,22.20
2022-10-19T11:11:35.830Z,21.90
2022-10-19T11:16:49.082Z,21.92
2022-10-19T11:19:24.542Z,21.65
2022-10-19T11:22:04.347Z,24.05
2022-10-19T11:24:52.992Z,22.75
2022-10-19T11:28:11.121Z,24.33
2022-10-19T11:31:12.050Z,21.77
2022-10-19T11:33:56.409Z,22.13
2022-10-19T11:37:06.352Z,24.10
2022-10-19T11:40:12.578Z,23.75
2022-10-19T11:43:12.804Z,26.30
2022-10-19T11:46:02.815Z,25.77
2022-10-19T11:49:17.101Z,26.02
2022-10-19T11:51:57.718Z,26.47
2022-10-19T11:54:43.582Z,26.98
2022-10-19T11:57:25.269Z,27.23
2022-10-19T12:00:27.269Z,27.85
2022-10-19T12:03:38.671Z,27.33
2022-10-19T12:07:05.114Z,26.77
2022-10-19T12:09:52.031Z,28.27
2022-10-19T12:12:31.114Z,26.02
2022-10-19T12:15:26.476Z,28.23
2022-10-19T12:17:57.562Z,28.25
2022-10-19T12:20:41.482Z,26.45
2022-10-19T12:23:31.538Z,26.33
2022-10-19T12:26:03.078Z,25.48
2022-10-19T12:28:34.849Z,25.40
2022-10-19T12:31:03.541Z,25.92
2022-10-19T12:33:36.883Z,27.25
2022-10-19T12:36:34.947Z,27.83
2022-10-19T12:39:15.954Z,26.20
2022-10-19T12:41:53.298Z,27.90
2022-10-19T12:45:00.599Z,27.17
2022-10-19T12:47:27.590Z,26.38
2022-10-19T12:49:56.415Z,28.88
2022-10-19T12:52:48.603Z,28.20
2022-10-19T12:55:15.569Z,28.60
2022-10-19T12:57:48.912Z,27.98
2022-10-19T13:00:29.902Z,29.02
2022-10-19T13:03:15.286Z,27.08
2022-10-19T13:05:42.704Z,27.63
2022-10-19T13:08:14.611Z,25.55
2022-10-19T13:11:09.983Z,27.38
2022-10-19T13:13:56.886Z,26.95
2022-10-19T13:16:29.516Z,28.92
2022-10-19T13:18:59.851Z,28.27
2022-10-19T13:22:02.293Z,26.83
2022-10-19T13:24:34.355Z,23.98
2022-10-19T13:27:04.172Z,25.90
2022-10-19T13:29:37.284Z,27.35
2022-10-19T13:32:33.467Z,25.67
2022-10-19T13:35:34.046Z,26.73
2022-10-19T13:41:38.276Z,25.00
2022-10-19T13:44:20.939Z,26.63
2022-10-19T13:47:21.906Z,25.40
2022-10-19T13:50:21.017Z,27.40
2022-10-19T13:52:51.260Z,27.02
2022-10-19T13:56:09.150Z,26.42
2022-10-19T13:58:58.928Z,26.55
2022-10-19T14:01:46.465Z,27.88
2022-10-19T14:04:28.130Z,27.88
2022-10-19T14:07:13.701Z,28.40
2022-10-19T14:09:44.057Z,27.38
2022-10-19T14:12:30.390Z,28.08
2022-10-19T14:14:58.309Z,28.60
2022-10-19T14:17:33.898Z,29.10
2022-10-19T14:20:02.118Z,28.92
2022-10-19T14:22:33.876Z,29.95
2022-10-19T14:25:24.485Z,28.52
2022-10-19T14:28:05.349Z,28.77
2022-10-19T14:30:36.844Z,28.63
2022-10-19T14:33:11.201Z,26.75
2022-10-19T14:35:41.740Z,29.77
2022-10-19T14:38:19.213Z,29.02
2022-10-19T14:40:46.268Z,27.60
2022-10-19T14:43:27.188Z,29.08
2022-10-19T14:46:06.317Z,28.55
2022-10-19T14:48:35.658Z,28.42
2022-10-19T14:51:10.103Z,28.48
2022-10-19T14:53:44.805Z,29.40
2022-10-19T14:56:34.161Z,30.73
2022-10-19T14:59:12.757Z,28.85
2022-10-19T15:01:41.174Z,27.67
2022-10-19T15:04:08.159Z,27.73
2022-10-19T15:06:36.319Z,25.70
2022-10-19T15:09:12.111Z,29.40
2022-10-19T15:11:49.760Z,28.45
2022-10-19T15:14:22.633Z,27.85
2022-10-19T15:16:53.745Z,27.27
2022-10-19T15:19:38.461Z,27.52
2022-10-19T15:22:14.627Z,25.98
2022-10-19T15:25:23.449Z,25.38
2022-10-19T15:27:51.172Z,22.95
2022-10-19T15:30:18.233Z,24.30
2022-10-19T15:32:49.543Z,25.48
2022-10-19T15:35:33.814Z,24.50
2022-10-19T15:38:19.635Z,22.92
2022-10-19T15:41:00.847Z,24.65
2022-10-19T15:43:32.569Z,24.45
2022-10-19T15:46:21.985Z,25.23
2022-10-19T15:48:55.195Z,23.67
2022-10-19T15:51:25.713Z,24.42
2022-10-19T15:54:00.429Z,24.20
2022-10-19T15:56:31.490Z,26.00
2022-10-19T15:59:01.232Z,25.75
2022-10-19T16:01:32.017Z,24.38
2022-10-19T16:03:59.791Z,25.38
2022-10-19T16:06:30.846Z,24.55
2022-10-19T16:08:58.780Z,24.58
2022-10-19T16:11:27.454Z,23.38
2022-10-19T16:13:54.590Z,23.73
2022-10-19T16:16:32.124Z,26.88
2022-10-19T16:19:00.094Z,26.65
2022-10-19T16:21:32.309Z,27.73
2022-10-19T16:23:59.939Z,27.85
2022-10-19T16:26:27.681Z,27.02
2022-10-19T16:28:55.855Z,27.58
2022-10-19T16:31:23.686Z,27.67
2022-10-19T16:33:51.077Z,27.58
2022-10-19T16:36:20.292Z,27.75
2022-10-19T16:38:48.354Z,29.63
2022-10-19T16:41:16.264Z,29.02
2022-10-19T16:43:44.294Z,29.15
2022-10-19T16:46:11.562Z,29.88
2022-10-19T16:48:38.602Z,31.13
2022-10-19T16:51:10.334Z,30.67
2022-10-19T16:53:38.836Z,31.48
2022-10-19T16:56:09.571Z,30.60
2022-10-19T16:58:37.499Z,31.63
2022-10-19T17:01:17.163Z,30.40
2022-10-19T17:03:45.958Z,30.75
2022-10-19T17:06:14.422Z,31.40
2022-10-19T17:09:20.161Z,31.92
2022-10-19T17:11:33.471Z,32.35
2022-10-19T17:14:05.631Z,30.52
2022-10-19T17:16:36.682Z,30.92
2022-10-19T17:19:05.964Z,33.50
2022-10-19T17:21:38.545Z,31.52
2022-10-19T17:24:08.166Z,32.00
2022-10-19T17:26:39.361Z,32.17
2022-10-19T17:29:07.170Z,31.67
2022-10-19T17:31:35.853Z,32.88
2022-10-19T17:34:04.126Z,30.92
2022-10-19T17:39:27.176Z,31.17
2022-10-19T17:42:01.696Z,31.75
2022-10-19T17:44:31.549Z,30.77
2022-10-19T17:47:00.767Z,31.30
2022-10-19T17:49:29.772Z,31.10
2022-10-19T17:51:56.905Z,30.83
2022-10-19T17:54:23.966Z,31.73
2022-10-19T17:56:50.963Z,55.72
2022-10-19T17:59:22.625Z,154.45
2022-10-19T18:01:56.937Z,118.65
2022-10-19T18:04:24.331Z,55.83
2022-10-19T18:06:51.762Z,48.53
2022-10-19T18:09:18.971Z,40.40
2022-10-19T18:11:46.253Z,37.15
2022-10-19T18:14:13.580Z,38.63
2022-10-19T18:16:45.523Z,34.55
2022-10-19T18:19:15.354Z,35.05
2022-10-19T18:21:45.205Z,35.90
2022-10-19T18:24:19.218Z,38.75
2022-10-19T18:26:47.712Z,36.45
2022-10-19T18:29:24.542Z,35.63
2022-10-19T18:31:52.772Z,35.55
2022-10-19T18:34:23.870Z,37.08
2022-10-19T18:36:59.408Z,36.20
2022-10-19T18:39:26.479Z,36.70
2022-10-19T18:41:57.128Z,36.97
2022-10-19T18:44:27.904Z,34.78
2022-10-19T18:46:57.070Z,35.50
2022-10-19T18:49:24.437Z,35.47
2022-10-19T18:51:55.131Z,38.33
2022-10-19T18:54:24.723Z,34.75
2022-10-19T18:56:51.806Z,34.20
2022-10-19T18:59:19.243Z,36.70
2022-10-19T19:01:46.398Z,33.83
2022-10-19T19:04:13.383Z,33.85
2022-10-19T19:06:40.734Z,36.67
2022-10-19T19:09:11.926Z,38.92
2022-10-19T19:11:41.038Z,38.28
2022-10-19T19:14:14.881Z,36.92
2022-10-19T19:16:44.925Z,37.92
2022-10-19T19:19:14.805Z,36.22
2022-10-19T19:21:44.465Z,37.08
2022-10-19T19:24:15.987Z,38.03
2022-10-19T19:26:48.373Z,39.05
2022-10-19T19:29:16.614Z,38.58
2022-10-19T19:31:44.511Z,39.70
2022-10-19T19:34:12.130Z,39.40
2022-10-19T19:36:46.466Z,38.97
2022-10-19T19:39:20.130Z,37.83
2022-10-19T19:41:49.409Z,38.60
2022-10-19T19:44:17.758Z,38.88
2022-10-19T19:46:44.787Z,40.15
2022-10-19T19:49:11.941Z,41.13
2022-10-19T19:51:39.090Z,42.70
2022-10-19T19:54:06.112Z,43.88
2022-10-19T19:56:33.259Z,44.40
2022-10-19T19:59:03.787Z,42.08
2022-10-19T20:01:32.247Z,43.03
2022-10-19T20:06:32.630Z,42.25
2022-10-19T20:08:59.836Z,43.30
2022-10-19T20:11:29.210Z,44.60
2022-10-19T20:13:56.524Z,46.88
2022-10-19T20:16:29.829Z,45.75
2022-10-19T20:19:05.582Z,45.38
2022-10-19T20:21:33.637Z,44.90
2022-10-19T20:24:00.929Z,45.80
2022-10-19T20:28:56.877Z,44.67
2022-10-19T20:31:25.150Z,45.78
2022-10-19T20:33:52.190Z,46.00
2022-10-19T20:36:23.694Z,46.72
2022-10-19T20:38:54.903Z,45.88
2022-10-19T20:41:25.771Z,47.28
2022-10-19T20:43:54.395Z,46.25
2022-10-19T20:46:25.343Z,46.92
2022-10-19T20:48:53.226Z,46.67
2022-10-19T20:51:30.709Z,46.85
2022-10-19T20:54:01.202Z,45.33
2022-10-19T20:56:32.005Z,45.55
2022-10-19T20:59:05.902Z,42.97
2022-10-19T21:01:35.504Z,45.63
2022-10-19T21:04:05.463Z,47.00
2022-10-19T21:06:38.191Z,45.85
2022-10-19T21:09:06.220Z,43.65
2022-10-19T21:11:37.233Z,45.63
2022-10-19T21:14:14.658Z,45.63
2022-10-19T21:16:42.775Z,45.58
2022-10-19T21:19:17.278Z,44.25
2022-10-19T21:21:50.831Z,44.90
2022-10-19T21:24:25.312Z,46.28
2022-10-19T21:26:52.977Z,51.10
2022-10-19T21:29:20.410Z,51.00
2022-10-19T21:31:50.399Z,53.33
2022-10-19T21:34:24.052Z,53.53
2022-10-19T21:36:51.842Z,51.55
2022-10-19T21:39:19.658Z,53.40
2022-10-19T21:41:47.843Z,51.67
2022-10-19T21:44:17.546Z,50.58
2022-10-19T21:46:47.439Z,52.97
2022-10-19T21:49:14.548Z,49.05
2022-10-19T21:51:49.007Z,48.05
2022-10-19T21:54:19.573Z,49.92
2022-10-19T21:56:47.315Z,46.85
2022-10-19T21:59:15.094Z,51.67
2022-10-19T22:01:42.388Z,51.20
2022-10-19T22:04:15.041Z,50.17
2022-10-19T22:06:42.938Z,47.47
2022-10-19T22:09:14.671Z,47.10
2022-10-19T22:11:42.709Z,47.42
2022-10-19T22:14:12.747Z,47.47
2022-10-19T22:16:40.897Z,47.00
2022-10-19T22:19:08.507Z,45.20
2022-10-19T22:21:35.817Z,43.88
2022-10-19T22:24:11.574Z,46.33
2022-10-19T22:26:42.979Z,49.35
2022-10-19T22:29:10.407Z,49.33
2022-10-19T22:31:38.740Z,47.88
2022-10-19T22:34:11.793Z,46.40
2022-10-19T22:36:38.896Z,47.90
2022-10-19T22:39:08.011Z,46.45
2022-10-19T22:42:50.482Z,47.20
2022-10-19T22:46:51.105Z,48.95
2022-10-19T22:50:51.844Z,47.75
2022-10-19T22:53:36.983Z,49.58
2022-10-19T22:56:04.627Z,51.20
2022-10-19T22:58:31.950Z,51.28
2022-10-19T23:01:14.126Z,50.53
2022-10-19T23:03:42.118Z,51.67
2022-10-19T23:06:12.176Z,50.55
2022-10-19T23:08:39.716Z,53.10
2022-10-19T23:11:06.767Z,53.88
2022-10-19T23:13:33.801Z,53.35
2022-10-19T23:16:00.995Z,58.40
2022-10-19T23:18:31.993Z,55.65
2022-10-19T23:21:05.351Z,55.10
2022-10-19T23:23:33.950Z,55.40
2022-10-19T23:26:06.535Z,53.08
2022-10-19T23:28:37.211Z,50.05
2022-10-19T23:31:09.624Z,54.22
2022-10-19T23:33:37.303Z,50.30
2022-10-19T23:36:11.777Z,49.45
2022-10-19T23:38:40.252Z,51.17
2022-10-19T23:41:08.152Z,52.90
2022-10-19T23:46:07.916Z,54.05
2022-10-19T23:48:35.564Z,52.22
2022-10-19T23:51:06.379Z,53.80
2022-10-19T23:53:39.907Z,55.13
2022-10-19T23:56:16.045Z,55.00
2022-10-19T23:58:43.631Z,56.15
